Detall de PIREP

Printer-friendly versionPDF version

[2015/04/04 07:05:00]
Flight IATA:CT1004
Pilot Number:012
Company ICAO:CAT
Aircraft Type:B744/E
PAX:400
Departing Airport: LPFR
Destination Airport: LFMP
Alternate Airport:LFBO
Online: VATSIM
Route:VFA R47 MINTA UN747 LEPES UN858 OXACA UM30 HIJ UN10 VTB UN871 TOU UT21 BOLSA UZ39 SIJAN
Flight Level:F380
No Slew and time accel
No pause
Crash detect
Detect pilot in Cockpit between each 30 and 45 minutes
07:05 Zero fuel Weight: 485523 Lbs, Fuel Weight: 70795 Lbs
07:05 VATSIM:LPFR 040630Z 03005KT CAVOK 14/13 Q1011
07:05 VATSIM:LFMP 040630Z AUTO 31015KT 9999 NSC 13/05 Q1015
07:06 EASTER CHARTER
07:06 Parking Brakes off
07:10 Take-off
07:10 Take off Weight: 554817 Lbs
07:10 Wind: 032º @ 005 Knots Heading: 282º
07:10 POS N37º 00´ 57´´ W007º 58´ 30´´
07:10 Gear Up: 178 Knots
07:10 Flaps:3 at 179 Knots
07:11 Flaps:2 at 212 Knots
07:12 Flaps:1 at 254 Knots
07:12 Flaps:0 at 252 Knots
07:25 Wind:257º@036 Knots Heading: 048º Ground Speed: 526 Knots Altitude 35229 ft
07:27 TOC
07:27 Fuel Weight: 56839 Lb
07:40 Wind:269º@035 Knots Heading: 042º Ground Speed: 518 Knots Altitude 37962 ft
07:55 Wind:278º@039 Knots Heading: 029º Ground Speed: 509 Knots Altitude 38051 ft
08:10 Wind:295º@047 Knots Heading: 028º Ground Speed: 498 Knots Altitude 38126 ft
08:25 Wind:311º@040 Knots Heading: 075º Ground Speed: 514 Knots Altitude 38120 ft
08:27 TOD
08:27 Fuel Weight: 36696 Lb
08:40 Wind:319º@015 Knots Heading: 166º Ground Speed: 325 Knots Altitude 9799 ft
08:40 Flaps:1 at 255 Knots
08:43 Flaps:2 at 237 Knots
08:45 Flaps:3 at 208 Knots
08:47 Gear Down: 188 Knots
08:47 Flaps:4 at 189 Knots
08:48 Flaps:5 at 190 Knots
08:50 Flaps:6 at 176 Knots
08:52 TouchDown:Rate -321 ft/min Speed: 138 Knots
08:52 Flaps:5 at 64 Knots
08:52 Flaps:2 at 65 Knots
08:52 VATSIM:LFMP 040830Z AUTO 30017KT 280V340 9999 SCT038 13/04 Q1016
08:52 Land
08:52 Wind:299º@020 Knots
08:52 Heading: 327º
08:52 Flight Duration: 01:42
08:52 Landing Weight: 516620 Lbs
08:52 POS N42º 44´ 33´´ E002º 52´ 16´´
08:56 Parking brakes on
08:56 Block to Block Duration: 01:50
08:56 Final Fuel: 30366 Lbls
08:56 Spent Fuel: 40429 Lbls
08:56 Flight Length: 767 NM
08:56 TOD Land Length: 134 NM

Exportar CSV

Powered by Drupal - Modified by Danger4k